Latest Weather Observations for Gooseberry Hill

IDW60801

Issued at 11:53 pm WST Tuesday 18 February 2020 (issued every 10 minutes, with the page automatically refreshed every 10 minutes)

About weather observations | Map of weather stations | Latest weather observations for WA | Other Formats
Station Details ID: 009204 Name: GOOSEBERRY HILL Lat: -31.94 Lon: 116.05 Height: 220.0 m
Data from the previous 72 hours. | See also: Recent months at Gooseberry Hill
Date/Time
WST
Temp
°C
App
Temp
°C
Dew
Point
°C
Rel
Hum
%
Delta-T
°C
Wind Press
QNH
hPa
Press
MSL
hPa
Rain since
9am
mm
Dir  Spd
km/h
Gust
km/h
Spd
kts
Gust
kts
18/11:46pm 26.2 19.7 8.2 32 9.8 E 32 50 17 27 - - -
18/11:30pm 26.3 19.8 8.3 32 9.8 E 32 46 17 25 - - -
18/11:00pm 26.6 20.1 8.1 31 10.1 E 32 48 17 26 - - -
18/10:30pm 26.9 20.5 8.4 31 10.1 E 32 48 17 26 - - -
18/10:00pm 27.1 21.8 8.5 31 10.2 E 26 39 14 21 - - -
18/09:30pm 27.5 21.9 8.9 31 10.3 E 28 39 15 21 - - -
18/09:00pm 27.7 22.4 8.6 30 10.5 E 26 35 14 19 - - -
18/08:30pm 28.1 23.3 8.9 30 10.7 E 24 33 13 18 - - -
18/08:00pm 28.7 24.3 8.9 29 11.0 E 22 35 12 19 - - -
18/07:30pm 29.0 25.6 9.2 29 11.1 E 17 28 9 15 - - -
18/07:00pm 29.5 26.1 9.1 28 11.4 E 17 26 9 14 - - -
18/06:30pm 30.2 25.8 9.1 27 11.9 E 22 33 12 18 - - -
18/06:00pm 30.6 26.0 9.5 27 12.0 E 24 41 13 22 - - -
18/05:30pm 31.0 27.2 9.8 27 12.1 E 20 32 11 17 - - -
18/05:00pm 30.8 25.8 9.6 27 12.1 ENE 26 41 14 22 - - -
18/04:30pm 31.3 27.6 10.1 27 12.2 ENE 20 35 11 19 - - -
18/04:00pm 31.3 26.8 10.1 27 12.2 ENE 24 37 13 20 - - -
18/03:30pm 31.6 27.2 10.3 27 12.3 ENE 24 39 13 21 - - -
18/03:00pm 30.6 25.7 10.0 28 11.8 ENE 26 37 14 20 - - -
18/02:30pm 31.4 27.2 9.6 26 12.4 E 22 35 12 19 - - -
18/02:00pm 31.5 27.4 10.2 27 12.3 E 22 35 12 19 - - -
18/01:30pm 29.9 25.6 9.4 28 11.6 E 22 37 12 20 - - -
18/01:00pm 28.9 25.0 9.6 30 10.9 E 20 33 11 18 - - -
18/12:30pm 28.8 24.9 9.5 30 10.9 ENE 20 33 11 18 - - -
18/12:00pm 28.4 23.4 9.6 31 10.6 ENE 26 46 14 25 - - -
18/11:49am 27.7 22.3 9.5 32 10.2 E 28 46 15 25 - - -
18/11:30am 27.5 21.2 9.8 33 9.9 E 33 50 18 27 - - -
18/11:01am 25.6 18.7 9.0 35 9.1 ENE 35 54 19 29 - - -
18/11:00am 25.5 18.2 8.9 35 9.1 ENE 37 54 20 29 - - -
18/10:33am 25.0 17.4 8.9 36 8.8 ENE 39 57 21 31 - - -
18/10:30am 25.0 17.1 9.3 37 8.6 ENE 41 59 22 32 - - -
18/10:22am 25.4 17.9 9.3 36 8.9 E 39 59 21 32 - - -
18/10:00am 23.4 15.0 9.0 40 7.8 E 43 59 23 32 - - -
18/09:47am 22.6 15.3 8.7 41 7.5 E 37 56 20 30 - - -
18/09:30am 22.3 14.2 8.8 42 7.3 E 41 59 22 32 - - -
18/09:00am 20.6 12.5 8.6 46 6.4 E 41 67 22 36 - - -
18/08:30am 19.7 12.3 8.4 48 5.9 E 37 57 20 31 - - -
18/08:00am 18.0 10.2 8.3 53 5.0 E 39 69 21 37 - - -
18/07:30am 17.2 9.4 8.4 56 4.6 E 39 70 21 38 - - -
18/07:00am 16.1 7.4 7.8 58 4.2 E 43 69 23 37 - - -
18/06:30am 15.6 7.3 7.9 60 3.9 E 41 65 22 35 - - -
18/06:00am 15.4 6.7 7.7 60 3.9 E 43 69 23 37 - - -
18/05:30am 15.4 6.7 7.7 60 3.9 E 43 65 23 35 - - -
18/05:00am 15.5 7.2 7.8 60 3.9 E 41 63 22 34 - - -
18/04:30am 15.5 7.2 7.8 60 3.9 E 41 63 22 34 - - -
18/04:00am 15.6 7.6 7.6 59 4.0 E 39 63 21 34 - - -
18/03:30am 15.8 7.5 7.8 59 4.1 E 41 65 22 35 - - -
18/03:03am 15.9 8.4 7.9 59 4.1 E 37 76 20 41 - - -
18/03:00am 16.0 8.9 8.0 59 4.1 E 35 57 19 31 - - -
18/02:30am 16.2 9.6 7.9 58 4.2 E 32 54 17 29 - - -
18/02:00am 16.6 9.5 8.1 57 4.4 E 35 67 19 36 - - -
18/01:30am 17.0 9.9 7.9 55 4.7 ESE 35 61 19 33 - - -
18/01:00am 17.6 10.2 8.2 54 4.9 E 37 63 20 34 - - -
18/12:30am 18.3 10.1 8.3 52 5.2 E 41 63 22 34 - - -
18/12:00am 19.2 12.2 8.5 50 5.6 E 35 57 19 31 - - -
 
Date/Time
WST
Temp
°C
App
Temp
°C
Dew
Point
°C
Rel
Hum
%
Delta-T
°C
Wind Press
QNH
hPa
Press
MSL
hPa
Rain since
9am
mm
Dir  Spd
km/h
Gust
km/h
Spd
kts
Gust
kts
17/11:30pm 20.0 13.1 8.7 48 6.0 E 35 63 19 34 - - -
17/11:00pm 20.9 12.9 8.9 46 6.4 E 41 76 22 41 - - -
17/10:30pm 21.8 15.4 8.7 43 7.0 E 32 59 17 32 - - -
17/10:00pm 23.0 16.3 8.3 39 7.9 E 33 61 18 33 - - -
17/09:41pm 23.8 17.9 7.4 35 8.7 E 28 56 15 30 - - -
17/09:30pm 24.2 19.5 6.0 31 9.4 E 20 41 11 22 - - -
17/09:00pm 24.9 20.1 5.7 29 9.9 E 20 33 11 18 - - -
17/08:30pm 25.4 21.7 6.1 29 10.1 E 15 26 8 14 - - -
17/08:00pm 25.8 22.1 6.4 29 10.2 E 15 26 8 14 - - -
17/07:30pm 26.4 22.2 7.4 30 10.2 E 19 28 10 15 - - -
17/07:00pm 27.1 23.3 7.5 29 10.6 E 17 30 9 16 - - -
17/06:30pm 27.9 24.1 7.7 28 11.0 E 17 32 9 17 - - -
17/06:00pm 28.5 24.9 8.2 28 11.2 E 17 33 9 18 - - -
17/05:30pm 28.9 24.6 8.0 27 11.5 E 20 41 11 22 - - -
17/05:00pm 29.9 26.1 8.9 27 11.8 E 19 30 10 16 - - -
17/04:30pm 30.3 27.2 8.7 26 12.1 E 15 28 8 15 - - -
17/04:00pm 30.6 27.5 8.9 26 12.2 E 15 30 8 16 - - -
17/03:30pm 30.6 26.3 9.5 27 12.0 ENE 22 33 12 18 - - -
17/03:00pm 31.1 28.0 10.4 28 11.9 ENE 17 30 9 16 - - -
17/02:30pm 30.4 26.8 9.8 28 11.7 E 19 33 10 18 - - -
17/02:00pm 30.2 27.5 10.2 29 11.5 ENE 15 24 8 13 - - -
17/01:30pm 30.3 28.1 10.8 30 11.3 ESE 13 32 7 17 - - -
17/01:00pm 29.4 26.3 11.5 33 10.4 ENE 19 30 10 16 - - -
17/12:30pm 28.6 25.9 11.6 34 9.9 ENE 17 28 9 15 - - -
17/12:00pm 28.4 26.1 11.9 36 9.6 E 15 28 8 15 - - -
17/11:30am 28.2 26.0 12.1 37 9.4 ENE 15 26 8 14 - - -
17/11:00am 27.2 24.2 12.4 40 8.7 ENE 20 33 11 18 - - -
17/10:30am 25.9 21.8 12.7 44 7.7 ENE 26 35 14 19 - - -
17/10:00am 25.2 21.5 12.8 46 7.2 E 24 35 13 19 - - -
17/09:30am 23.4 18.4 12.1 49 6.5 E 30 46 16 25 - - -
17/09:00am 23.1 18.5 12.4 51 6.2 E 28 44 15 24 - - -
17/08:47am 22.4 17.7 12.1 52 5.9 E 28 48 15 26 - - -
17/08:30am 22.0 17.7 12.0 53 5.7 E 26 44 14 24 - - -
17/08:00am 20.3 15.6 12.0 59 4.7 E 28 44 15 24 - - -
17/07:30am 18.8 14.1 11.9 64 3.9 E 28 43 15 23 - - -
17/07:06am 18.0 13.2 11.6 66 3.5 ESE 28 46 15 25 - - -
17/07:00am 17.8 13.0 11.6 67 3.4 ESE 28 43 15 23 - - -
17/06:38am 17.3 12.4 11.3 68 3.3 ESE 28 46 15 25 - - -
17/06:30am 17.2 12.0 11.5 69 3.1 ESE 30 43 16 23 - - -
17/06:20am 17.1 12.2 11.4 69 3.1 ESE 28 50 15 27 - - -
17/06:00am 16.9 11.6 11.4 70 3.0 ESE 30 44 16 24 - - -
17/05:30am 16.9 12.4 11.4 70 3.0 ESE 26 43 14 23 - - -
17/05:00am 17.1 13.5 11.8 71 2.9 ESE 22 41 12 22 - - -
17/04:30am 17.2 13.3 12.1 72 2.8 ESE 24 41 13 22 - - -
17/04:00am 17.4 13.6 12.3 72 2.8 ESE 24 39 13 21 - - -
17/03:30am 17.3 13.9 12.4 73 2.7 ESE 22 43 12 23 - - -
17/03:00am 17.4 15.3 12.5 73 2.7 ESE 15 32 8 17 - - -
17/02:30am 17.8 15.8 12.7 72 2.9 E 15 33 8 18 - - -
17/02:00am 18.3 16.3 12.7 70 3.2 ESE 15 28 8 15 - - -
17/01:30am 18.8 17.6 12.8 68 3.4 SE 11 24 6 13 - - -
17/01:00am 18.7 17.5 12.7 68 3.4 SSE 11 20 6 11 - - -
17/12:30am 18.9 17.2 12.6 67 3.6 SSE 13 20 7 11 - - -
17/12:00am 19.2 18.0 12.7 66 3.7 SSE 11 22 6 12 - - -
 
Date/Time
WST
Temp
°C
App
Temp
°C
Dew
Point
°C
Rel
Hum
%
Delta-T
°C
Wind Press
QNH
hPa
Press
MSL
hPa
Rain since
9am
mm
Dir  Spd
km/h
Gust
km/h
Spd
kts
Gust
kts
16/11:30pm 19.2 18.8 12.9 67 3.6 S 7 15 4 8 - - -
16/11:00pm 19.2 18.2 13.4 69 3.3 S 11 22 6 12 - - -
16/10:30pm 19.1 17.0 13.5 70 3.2 SSW 17 26 9 14 - - -
16/10:00pm 19.2 17.9 13.6 70 3.2 SSW 13 28 7 15 - - -
16/09:30pm 19.3 17.6 13.5 69 3.3 SSW 15 30 8 16 - - -
16/09:00pm 19.5 17.1 13.7 69 3.4 SSW 19 32 10 17 - - -
16/08:30pm 19.8 18.1 14.8 73 3.0 SSW 17 30 9 16 - - -
16/08:00pm 19.9 18.6 15.7 77 2.5 SSW 17 26 9 14 - - -
16/07:30pm 20.3 18.6 15.7 75 2.8 SSW 19 32 10 17 - - -
16/07:00pm 20.8 19.1 15.8 73 3.0 SW 19 30 10 16 - - -
16/06:30pm 21.6 18.2 15.9 70 3.5 SSW 28 44 15 24 - - -
16/06:00pm 22.4 18.5 15.5 65 4.2 SSW 30 43 16 23 - - -
16/05:30pm 22.7 18.2 14.8 61 4.7 SW 32 43 17 23 - - -
16/05:00pm 24.2 20.7 14.6 55 5.8 SW 26 39 14 21 - - -
16/04:30pm 25.4 23.0 14.5 51 6.6 SW 20 33 11 18 - - -
16/04:00pm 25.0 21.3 13.9 50 6.6 SW 26 39 14 21 - - -
16/03:30pm 25.2 21.3 13.4 48 7.0 SW 26 39 14 21 - - -
16/03:00pm 25.7 21.8 13.2 46 7.4 SW 26 39 14 21 - - -
16/02:30pm 25.8 22.8 13.6 47 7.2 SW 22 44 12 24 - - -
16/02:00pm 26.2 22.4 13.7 46 7.4 SW 26 41 14 22 - - -
16/01:30pm 26.3 23.1 13.1 44 7.8 SW 22 35 12 19 - - -
16/01:00pm 26.3 24.1 13.4 45 7.6 WSW 17 28 9 15 - - -
16/12:30pm 25.9 23.7 12.0 42 8.0 WSW 15 30 8 16 - - -
16/12:00pm 24.9 22.6 11.8 44 7.5 SSW 15 30 8 16 - - -
16/11:30am 24.4 21.9 12.4 47 6.9 SW 17 28 9 15 - - -
16/11:00am 22.8 19.8 11.8 50 6.3 SSW 19 33 10 18 - - -
16/10:30am 23.2 20.8 12.8 52 6.0 SW 17 30 9 16 - - -
16/10:00am 21.4 18.5 12.3 56 5.2 SW 19 32 10 17 - - -
16/09:30am 20.7 18.2 12.4 59 4.7 SSW 17 28 9 15 - - -
16/09:00am 20.3 18.2 12.3 60 4.5 SSW 15 30 8 16 - - -
16/08:30am 19.1 17.3 12.1 64 3.9 SSW 13 26 7 14 - - -
16/08:00am 18.1 16.0 12.5 70 3.1 S 15 30 8 16 - - -
16/07:30am 17.0 15.7 12.5 75 2.5 S 11 20 6 11 - - -
16/07:00am 16.6 14.6 12.6 77 2.2 S 15 28 8 15 - - -
16/06:30am 16.3 14.7 12.8 80 2.0 S 13 22 7 12 - - -
16/06:00am 16.4 14.9 13.1 81 1.9 S 13 22 7 12 - - -
16/05:30am 16.7 15.3 13.4 81 1.9 SSW 13 24 7 13 - - -
16/05:00am 16.8 15.9 13.7 82 1.8 SSW 11 20 6 11 - - -
16/04:30am 17.2 15.8 13.5 79 2.1 SSW 13 22 7 12 - - -
16/04:00am 17.6 16.2 13.5 77 2.3 SSW 13 26 7 14 - - -
16/03:30am 17.9 16.6 13.8 77 2.4 SSW 13 24 7 13 - - -
16/03:00am 18.2 16.0 14.5 79 2.2 SSW 19 32 10 17 - - -
16/02:30am 18.3 17.5 15.0 81 1.9 SW 13 22 7 12 - - -
16/02:00am 18.1 18.1 15.2 83 1.7 SSW 9 15 5 8 - - -
16/01:30am 18.4 17.7 15.3 82 1.8 SW 13 22 7 12 - - -
16/01:00am 18.6 17.2 15.5 82 1.8 SW 17 26 9 14 - - -
16/12:30am 18.7 18.1 15.6 82 1.8 SW 13 20 7 11 - - -
16/12:00am 18.8 17.5 15.7 82 1.9 SW 17 24 9 13 - - -

Other formats

Comma delimited format used in spreadsheet applications
http://www.bom.gov.au/fwo/IDW60801/IDW60801.94615.axf

JavaScript Object Notation format (JSON) in row-major order
http://www.bom.gov.au/fwo/IDW60801/IDW60801.94615.json

Data quality

Most of these data are generated automatically and are frequently updated. Quality checks on data are not normally performed. It is possible for incorrect values to appear. Refer to information at About Latest Weather Observations and please check the disclaimer before using these data.